createdAt,value
2023-04-21T00:00:45.915Z,101371.16
2023-04-21T00:03:17.970Z,101366.66
2023-04-21T00:05:49.680Z,101356.81
2023-04-21T00:08:21.558Z,101355.97
2023-04-21T00:10:53.046Z,101363.56
2023-04-21T00:13:24.851Z,101373.22
2023-04-21T00:15:56.423Z,101366.66
2023-04-21T00:18:28.291Z,101364.19
2023-04-21T00:20:59.758Z,101359.88
2023-04-21T00:23:31.694Z,101359.88
2023-04-21T00:26:03.208Z,101283.78
2023-04-21T00:28:35.271Z,101359.25
2023-04-21T00:31:06.782Z,101363.78
2023-04-21T00:33:38.606Z,101359.88
2023-04-21T00:36:10.091Z,101355.16
2023-04-21T00:38:41.872Z,101355.38
2023-04-21T00:41:13.349Z,101361.34
2023-04-21T00:43:45.200Z,101353.09
2023-04-21T00:46:16.823Z,101356.41
2023-04-21T00:48:48.663Z,101362.97
2023-04-21T00:51:20.127Z,101362.13
2023-04-21T00:53:51.599Z,101366.25
2023-04-21T00:56:23.066Z,101357.00
2023-04-21T00:58:54.563Z,101361.31
2023-04-21T01:01:26.050Z,101356.59
2023-04-21T01:03:58.148Z,101350.59
2023-04-21T01:06:29.781Z,101358.00
2023-04-21T01:09:01.653Z,101360.44
2023-04-21T01:11:33.130Z,101355.50
2023-04-21T01:14:04.914Z,101357.13
2023-04-21T01:16:36.449Z,101347.47
2023-04-21T01:19:08.450Z,101346.22
2023-04-21T01:21:39.923Z,101345.78
2023-04-21T01:24:11.737Z,101344.75
2023-04-21T01:26:43.242Z,101340.41
2023-04-21T01:29:15.073Z,101345.13
2023-04-21T01:31:46.608Z,101342.66
2023-04-21T01:34:18.518Z,101332.81
2023-04-21T01:36:50.018Z,101335.88
2023-04-21T01:39:22.033Z,101341.00
2023-04-21T01:41:53.481Z,101332.38
2023-04-21T01:44:25.292Z,101332.56
2023-04-21T01:46:56.762Z,101331.94
2023-04-21T01:49:28.627Z,101331.09
2023-04-21T01:52:00.103Z,101336.00
2023-04-21T01:54:32.073Z,101329.25
2023-04-21T01:57:03.598Z,101329.00
2023-04-21T01:59:35.467Z,101323.47
2023-04-21T02:02:07.027Z,101321.63
2023-04-21T02:04:38.776Z,101321.19
2023-04-21T02:07:10.330Z,101319.16
2023-04-21T02:09:42.189Z,101315.47
2023-04-21T02:12:13.740Z,101323.06
2023-04-21T02:14:45.469Z,101318.75
2023-04-21T02:17:16.928Z,101312.63
2023-04-21T02:19:48.660Z,101312.63
2023-04-21T02:22:20.145Z,101307.28
2023-04-21T02:24:51.634Z,101311.81
2023-04-21T02:27:23.089Z,101308.13
2023-04-21T02:29:54.568Z,101312.22
2023-04-21T02:32:26.427Z,101310.34
2023-04-21T02:34:58.446Z,101307.50
2023-04-21T02:37:29.934Z,101312.00
2023-04-21T02:40:01.796Z,101313.41
2023-04-21T02:42:33.307Z,101315.44
2023-04-21T02:45:05.104Z,101316.28
2023-04-21T02:47:36.638Z,101314.22
2023-04-21T02:50:08.476Z,101328.34
2023-04-21T02:52:39.957Z,101320.75
2023-04-21T02:55:11.900Z,101326.28
2023-04-21T02:57:43.379Z,101316.19
2023-04-21T03:00:15.214Z,101330.69
2023-04-21T03:02:47.384Z,101318.63
2023-04-21T03:05:19.008Z,101316.53
2023-04-21T03:07:50.518Z,101306.31
2023-04-21T03:10:22.018Z,101308.13
2023-04-21T03:12:53.553Z,101308.94
2023-04-21T03:15:25.039Z,101305.84
2023-04-21T03:17:56.587Z,101302.56
2023-04-21T03:20:28.101Z,101301.09
2023-04-21T03:22:59.612Z,101297.63
2023-04-21T03:25:31.093Z,101297.59
2023-04-21T03:28:02.607Z,101305.09
2023-04-21T03:30:34.111Z,101305.94
2023-04-21T03:33:05.922Z,101311.63
2023-04-21T03:35:37.388Z,101310.56
2023-04-21T03:38:09.054Z,101306.50
2023-04-21T03:40:40.528Z,101305.69
2023-04-21T03:43:12.023Z,101302.78
2023-04-21T03:45:43.626Z,101308.50
2023-04-21T03:48:15.362Z,101303.38
2023-04-21T03:50:46.840Z,101304.78
2023-04-21T03:53:18.704Z,101307.25
2023-04-21T03:55:50.176Z,101309.72
2023-04-21T03:58:21.940Z,101304.78
2023-04-21T04:00:53.420Z,101313.59
2023-04-21T04:03:25.392Z,101309.28
2023-04-21T04:05:56.996Z,101316.44
2023-04-21T04:08:28.772Z,101314.59
2023-04-21T04:11:00.265Z,101315.41
2023-04-21T04:13:32.293Z,101312.94
2023-04-21T04:16:03.841Z,101310.09
2023-04-21T04:18:35.787Z,101317.06
2023-04-21T04:21:07.270Z,101321.22
2023-04-21T04:23:38.753Z,101323.91
2023-04-21T04:26:10.247Z,101326.19
2023-04-21T04:28:42.168Z,101326.03
2023-04-21T04:31:13.787Z,101326.69
2023-04-21T04:33:45.795Z,101328.38
2023-04-21T04:36:17.253Z,101336.16
2023-04-21T04:38:49.168Z,101325.13
2023-04-21T04:41:20.643Z,101330.66
2023-04-21T04:43:52.114Z,101327.78
2023-04-21T04:46:23.654Z,101088.16
2023-04-21T04:48:55.174Z,101332.94
2023-04-21T04:51:26.640Z,101336.38
2023-04-21T04:53:58.515Z,101319.78
2023-04-21T04:56:30.038Z,101342.63
2023-04-21T04:59:01.829Z,101336.72
2023-04-21T05:01:33.470Z,101342.88
2023-04-21T05:04:05.552Z,101341.03
2023-04-21T05:06:37.115Z,101330.66
2023-04-21T05:09:09.083Z,101335.19
2023-04-21T05:11:40.566Z,101338.16
2023-04-21T05:14:12.327Z,101332.84
2023-04-21T05:16:43.815Z,101340.22
2023-04-21T05:19:18.112Z,101335.50
2023-04-21T05:21:50.192Z,101346.44
2023-04-21T05:24:21.846Z,101348.91
2023-04-21T05:26:53.339Z,101341.38
2023-04-21T05:29:25.227Z,101349.78
2023-04-21T05:31:56.783Z,101343.44
2023-04-21T05:34:28.667Z,101346.13
2023-04-21T05:37:00.175Z,101356.41
2023-04-21T05:39:31.858Z,101357.63
2023-04-21T05:42:03.349Z,101354.16
2023-04-21T05:44:35.224Z,101352.72
2023-04-21T05:47:06.700Z,101344.50
2023-04-21T05:49:38.200Z,101346.53
2023-04-21T05:52:09.705Z,101342.63
2023-04-21T05:54:41.465Z,101349.81
2023-04-21T05:57:12.950Z,101347.94
2023-04-21T05:59:44.652Z,101349.50
2023-04-21T06:02:16.204Z,101337.75
2023-04-21T06:04:48.463Z,101347.16
2023-04-21T06:07:20.088Z,101343.63
2023-04-21T06:09:51.569Z,101342.13
2023-04-21T06:12:23.040Z,101346.56
2023-04-21T06:14:54.538Z,101344.50
2023-04-21T06:17:26.064Z,101342.53
2023-04-21T06:19:57.851Z,101338.13
2023-04-21T06:22:29.322Z,101329.53
2023-04-21T06:25:01.019Z,101332.28
2023-04-21T06:27:32.512Z,101330.19
2023-04-21T06:30:04.236Z,101326.25
2023-04-21T06:32:35.855Z,101326.78
2023-04-21T06:35:07.697Z,101322.44
2023-04-21T06:37:39.168Z,101323.75
2023-04-21T06:40:10.957Z,101322.28
2023-04-21T06:42:42.446Z,101320.91
2023-04-21T06:45:14.317Z,101319.78
2023-04-21T06:47:45.863Z,101320.75
2023-04-21T06:50:17.348Z,101314.78
2023-04-21T06:52:49.127Z,101320.28
2023-04-21T06:55:20.609Z,101315.28
2023-04-21T06:57:52.082Z,101316.91
2023-04-21T07:00:23.541Z,101322.63
2023-04-21T07:02:55.198Z,101312.19
2023-04-21T07:05:26.739Z,101317.78
2023-04-21T07:07:58.642Z,101322.03
2023-04-21T07:10:30.145Z,101318.34
2023-04-21T07:13:02.031Z,101320.19
2023-04-21T07:15:33.532Z,101315.72
2023-04-21T07:18:05.421Z,101317.50
2023-04-21T07:20:36.934Z,101318.16
2023-04-21T07:23:08.599Z,101313.47
2023-04-21T07:25:40.071Z,101310.16
2023-04-21T07:28:12.044Z,101309.72
2023-04-21T07:30:43.609Z,101303.50
2023-04-21T07:33:15.483Z,101309.78
2023-04-21T07:35:46.964Z,101303.97
2023-04-21T07:38:18.720Z,101301.19
2023-04-21T07:40:50.200Z,101301.38
2023-04-21T07:43:21.697Z,101304.91
2023-04-21T07:45:53.231Z,101300.28
2023-04-21T07:48:24.977Z,101298.31
2023-04-21T07:50:56.442Z,101298.59
2023-04-21T07:53:28.417Z,101304.88
2023-04-21T07:55:59.903Z,101297.72
2023-04-21T07:58:31.740Z,101303.06
2023-04-21T08:01:03.213Z,101302.41
2023-04-21T08:03:35.181Z,101298.66
2023-04-21T08:06:06.842Z,101300.00
2023-04-21T08:08:38.884Z,101304.94
2023-04-21T08:11:11.049Z,101301.09
2023-04-21T08:13:42.921Z,101306.47
2023-04-21T08:16:14.517Z,101303.69
2023-04-21T08:18:46.320Z,101300.25
2023-04-21T08:21:17.791Z,101299.72
2023-04-21T08:23:49.289Z,101299.88
2023-04-21T08:26:20.777Z,101300.06
2023-04-21T08:28:52.343Z,101289.72
2023-04-21T08:31:23.879Z,101296.00
2023-04-21T08:34:02.105Z,101293.75
2023-04-21T08:36:34.156Z,101295.25
2023-04-21T08:39:05.858Z,101292.69
2023-04-21T08:41:37.348Z,101288.88
2023-04-21T08:44:09.039Z,101286.50
2023-04-21T08:46:40.487Z,101287.28
2023-04-21T08:49:12.209Z,101282.88
2023-04-21T08:51:43.700Z,101271.75
2023-04-21T08:54:15.541Z,101275.19
2023-04-21T08:56:47.050Z,101277.03
2023-04-21T08:59:18.827Z,101273.16
2023-04-21T09:01:50.528Z,101277.72
2023-04-21T09:04:22.573Z,101275.56
2023-04-21T09:06:54.304Z,101275.72
2023-04-21T09:09:26.134Z,101277.25
2023-04-21T09:11:57.646Z,101280.69
2023-04-21T09:14:29.469Z,101269.97
2023-04-21T09:17:01.104Z,101276.53
2023-04-21T09:19:32.948Z,101269.75
2023-04-21T09:22:04.431Z,101273.34
2023-04-21T09:24:36.140Z,101266.19
2023-04-21T09:27:07.615Z,101263.41
2023-04-21T09:29:39.477Z,101271.22
2023-04-21T09:32:11.035Z,101268.59
2023-04-21T09:34:42.965Z,101265.09
2023-04-21T09:37:16.604Z,101267.06
2023-04-21T09:40:04.282Z,101257.53
2023-04-21T09:42:38.956Z,101260.84
2023-04-21T09:47:46.582Z,101261.81
2023-04-21T09:50:26.749Z,101253.16
2023-04-21T09:53:07.558Z,101252.09
2023-04-21T09:55:39.439Z,101254.03
2023-04-21T09:58:10.912Z,101244.16
2023-04-21T10:00:42.400Z,101254.78
2023-04-21T10:03:14.105Z,101249.59
2023-04-21T10:05:46.158Z,101249.56
2023-04-21T10:08:17.693Z,101236.84
2023-04-21T10:10:49.465Z,101253.59
2023-04-21T10:13:20.955Z,101246.41
2023-04-21T10:15:52.471Z,101243.47
2023-04-21T10:18:23.976Z,101245.13
2023-04-21T10:20:55.498Z,101239.56
2023-04-21T10:23:27.420Z,101241.59
2023-04-21T10:25:58.889Z,101233.53
2023-04-21T10:28:30.367Z,101224.06
2023-04-21T10:31:01.862Z,101227.69
2023-04-21T10:33:33.698Z,101217.78
2023-04-21T10:36:05.176Z,101226.16
2023-04-21T10:38:36.660Z,101223.56
2023-04-21T10:41:08.134Z,101213.16
2023-04-21T10:43:39.894Z,101209.28
2023-04-21T10:46:11.347Z,101213.41
2023-04-21T10:48:43.002Z,101210.16
2023-04-21T10:51:14.487Z,101199.25
2023-04-21T10:53:45.986Z,101198.75
2023-04-21T10:56:17.461Z,101203.25
2023-04-21T10:58:48.943Z,101191.44
2023-04-21T11:01:20.486Z,101178.50
2023-04-21T11:03:52.172Z,101182.47
2023-04-21T11:06:23.715Z,101178.50
2023-04-21T11:08:55.260Z,101173.34
2023-04-21T11:11:26.768Z,101174.91
2023-04-21T11:13:58.606Z,101174.78
2023-04-21T11:16:30.119Z,101174.63
2023-04-21T11:19:02.025Z,101161.81
2023-04-21T11:21:33.497Z,101151.94
2023-04-21T11:24:05.425Z,101162.22
2023-04-21T11:26:36.914Z,101162.53
2023-04-21T11:29:08.733Z,101166.03
2023-04-21T11:31:40.370Z,101150.25
2023-04-21T11:34:12.426Z,101146.25
2023-04-21T11:36:43.905Z,101148.28
2023-04-21T11:39:15.409Z,101148.06
2023-04-21T11:41:46.875Z,101138.59
2023-04-21T11:44:18.606Z,101137.19
2023-04-21T11:46:50.202Z,101144.47
2023-04-21T11:49:22.090Z,101135.53
2023-04-21T11:51:53.549Z,101137.38
2023-04-21T11:54:25.316Z,101130.56
2023-04-21T11:56:56.784Z,101130.03
2023-04-21T11:59:28.533Z,101132.31
2023-04-21T12:02:00.164Z,101128.09
2023-04-21T12:04:34.246Z,101122.50
2023-04-21T12:07:06.018Z,101128.84
2023-04-21T12:09:39.089Z,101120.47
2023-04-21T12:12:10.552Z,101111.47
2023-04-21T12:14:43.725Z,101117.13
2023-04-21T12:17:15.232Z,101121.00
2023-04-21T12:19:47.096Z,101122.50
2023-04-21T12:22:18.616Z,101124.22
2023-04-21T12:24:50.120Z,101110.25
2023-04-21T12:27:21.589Z,101116.38
2023-04-21T12:29:53.364Z,101099.59
2023-04-21T12:32:24.853Z,101101.88
2023-04-21T12:34:56.340Z,101117.16
2023-04-21T12:37:27.834Z,101111.50
2023-04-21T12:39:59.602Z,101096.38
2023-04-21T12:42:31.111Z,101095.81
2023-04-21T12:45:02.827Z,101101.66
2023-04-21T12:47:34.342Z,101096.16
2023-04-21T12:50:06.346Z,101090.13
2023-04-21T12:52:37.846Z,101104.06
2023-04-21T12:55:09.690Z,101099.00
2023-04-21T12:57:41.173Z,101093.53
2023-04-21T13:00:13.006Z,101076.28
2023-04-21T13:02:44.687Z,101071.38
2023-04-21T13:05:16.344Z,101076.09
2023-04-21T13:07:47.826Z,101080.38
2023-04-21T13:10:19.367Z,101074.13
2023-04-21T13:12:50.864Z,101077.09
2023-04-21T13:15:22.342Z,101071.50
2023-04-21T13:17:53.881Z,101067.25
2023-04-21T13:20:25.397Z,101063.13
2023-04-21T13:22:56.915Z,101058.53
2023-04-21T13:25:28.385Z,101054.38
2023-04-21T13:28:00.180Z,101049.03
2023-04-21T13:30:31.660Z,101053.94
2023-04-21T13:33:03.213Z,100963.84
2023-04-21T13:35:34.703Z,101030.31
2023-04-21T13:38:06.446Z,101043.06
2023-04-21T13:40:37.907Z,101040.84
2023-04-21T13:43:09.624Z,101036.91
2023-04-21T13:45:41.085Z,101021.31
2023-04-21T13:48:12.943Z,101026.66
2023-04-21T13:50:44.514Z,101022.63
2023-04-21T13:53:17.161Z,101020.09
2023-04-21T13:55:49.604Z,101021.28
2023-04-21T13:58:21.398Z,101015.72
2023-04-21T14:00:52.857Z,101015.75
2023-04-21T14:03:24.771Z,101005.31
2023-04-21T14:05:56.456Z,101004.81
2023-04-21T14:08:28.334Z,101003.59
2023-04-21T14:10:59.824Z,100994.91
2023-04-21T14:13:38.147Z,101008.66
2023-04-21T14:16:13.910Z,100996.03
2023-04-21T14:18:45.456Z,100992.31
2023-04-21T14:21:17.512Z,100988.69
2023-04-21T14:23:48.994Z,100979.13
2023-04-21T14:26:20.865Z,100978.28
2023-04-21T14:28:52.334Z,100978.97
2023-04-21T14:31:24.180Z,100974.72
2023-04-21T14:33:55.681Z,100976.31
2023-04-21T14:36:27.409Z,100962.66
2023-04-21T14:38:58.898Z,100967.72
2023-04-21T14:41:30.798Z,100965.59
2023-04-21T14:44:02.294Z,100962.63
2023-04-21T14:46:34.058Z,100961.03
2023-04-21T14:49:05.594Z,100957.06
2023-04-21T14:51:37.346Z,100888.16
2023-04-21T14:54:08.854Z,100949.31
2023-04-21T14:56:40.666Z,100938.59
2023-04-21T14:59:12.172Z,100940.47
2023-04-21T15:01:45.430Z,100933.16
2023-04-21T15:04:17.260Z,100829.25
2023-04-21T15:06:49.392Z,100916.63
2023-04-21T15:09:20.922Z,100924.78
2023-04-21T15:11:52.393Z,100928.81
2023-04-21T15:14:23.874Z,100923.66
2023-04-21T15:16:55.480Z,100839.47
2023-04-21T15:19:29.993Z,100918.00
2023-04-21T15:22:01.820Z,100916.78
2023-04-21T15:24:33.286Z,100921.19
2023-04-21T15:27:05.191Z,100919.38
2023-04-21T15:29:37.058Z,100914.03
2023-04-21T15:32:09.106Z,100901.50
2023-04-21T15:34:40.568Z,100906.41
2023-04-21T15:37:12.364Z,100884.44
2023-04-21T15:39:44.101Z,100901.56
2023-04-21T15:42:15.657Z,100908.00
2023-04-21T15:44:47.163Z,100901.09
2023-04-21T15:47:18.659Z,100897.06
2023-04-21T15:49:50.162Z,100892.59
2023-04-21T15:52:21.652Z,100895.00
2023-04-21T15:54:53.210Z,100888.22
2023-04-21T15:57:24.687Z,100886.84
2023-04-21T15:59:56.194Z,100891.56
2023-04-21T16:02:27.887Z,100888.69
2023-04-21T16:05:00.185Z,100879.63
2023-04-21T16:07:31.886Z,100892.75
2023-04-21T16:10:03.737Z,100880.53
2023-04-21T16:12:35.278Z,100884.41
2023-04-21T16:15:22.341Z,100881.56
2023-04-21T16:17:55.609Z,100875.72
2023-04-21T16:20:27.625Z,100875.66
2023-04-21T16:22:59.161Z,100868.16
2023-04-21T16:25:31.100Z,100863.53
2023-04-21T16:28:02.724Z,100868.09
2023-04-21T16:30:34.623Z,100867.25
2023-04-21T16:33:06.112Z,100863.75
2023-04-21T16:35:37.885Z,100866.69
2023-04-21T16:38:09.454Z,100866.97
2023-04-21T16:40:41.318Z,100860.63
2023-04-21T16:43:12.871Z,100855.47
2023-04-21T16:45:44.459Z,100854.22
2023-04-21T16:48:16.043Z,100852.78
2023-04-21T16:50:47.648Z,100839.63
2023-04-21T16:53:19.138Z,100847.50
2023-04-21T16:55:50.633Z,100845.63
2023-04-21T16:58:22.149Z,100850.22
2023-04-21T17:00:53.768Z,100843.19
2023-04-21T17:03:25.505Z,100843.97
2023-04-21T17:05:57.118Z,100843.44
2023-04-21T17:08:28.604Z,100845.91
2023-04-21T17:11:00.421Z,100855.06
2023-04-21T17:13:31.910Z,100852.13
2023-04-21T17:16:03.829Z,100853.50
2023-04-21T17:18:35.359Z,100854.56
2023-04-21T17:21:07.147Z,100854.84
2023-04-21T17:23:39.022Z,100848.66
2023-04-21T17:26:12.921Z,100849.19
2023-04-21T17:28:45.022Z,100847.31
2023-04-21T17:31:16.692Z,100843.78
2023-04-21T17:33:48.460Z,100841.13
2023-04-21T17:36:19.985Z,100849.19
2023-04-21T17:38:51.566Z,100854.81
2023-04-21T17:41:23.050Z,100851.84
2023-04-21T17:43:54.570Z,100859.94
2023-04-21T17:46:26.079Z,100848.88
2023-04-21T17:48:57.887Z,100850.44
2023-04-21T17:51:29.359Z,100849.38
2023-04-21T17:54:00.850Z,100842.31
2023-04-21T17:56:32.358Z,100854.72
2023-04-21T17:59:03.886Z,100856.34
2023-04-21T18:01:35.405Z,100847.91
2023-04-21T18:04:07.714Z,100853.28
2023-04-21T18:06:39.521Z,100849.75
2023-04-21T18:09:11.034Z,100855.38
2023-04-21T18:11:42.521Z,100851.56
2023-04-21T18:14:14.338Z,100847.72
2023-04-21T18:16:45.825Z,100858.22
2023-04-21T18:19:17.336Z,100863.03
2023-04-21T18:21:48.829Z,100859.50
2023-04-21T18:24:20.586Z,100855.97
2023-04-21T18:26:52.075Z,100856.72
2023-04-21T18:29:23.550Z,100863.91
2023-04-21T18:31:55.151Z,100858.22
2023-04-21T18:34:27.083Z,100857.38
2023-04-21T18:36:58.542Z,100856.28
2023-04-21T18:39:30.221Z,100856.47
2023-04-21T18:42:01.693Z,100855.31
2023-04-21T18:44:33.566Z,100863.91
2023-04-21T18:47:05.091Z,100861.97
2023-04-21T18:49:36.651Z,100858.94
2023-04-21T18:52:08.121Z,100857.81
2023-04-21T18:54:39.962Z,100857.72
2023-04-21T18:57:11.639Z,100852.53
2023-04-21T18:59:43.540Z,100853.56
2023-04-21T19:02:15.146Z,100857.31
2023-04-21T19:04:46.998Z,100853.50
2023-04-21T19:07:18.536Z,100860.72
2023-04-21T19:09:50.021Z,100862.03
2023-04-21T19:12:21.499Z,100860.06
2023-04-21T19:14:53.502Z,100858.63
2023-04-21T19:17:25.757Z,100863.50
2023-04-21T19:19:57.297Z,100854.22
2023-04-21T19:22:28.773Z,100853.38
2023-04-21T19:25:00.294Z,100863.00
2023-04-21T19:27:31.779Z,100854.88
2023-04-21T19:30:03.289Z,100855.88
2023-04-21T19:32:34.897Z,100855.31
2023-04-21T19:35:06.433Z,100851.75
2023-04-21T19:37:38.093Z,100850.38
2023-04-21T19:40:09.564Z,100857.22
2023-04-21T19:42:41.832Z,100855.00
2023-04-21T19:45:13.535Z,100842.59
2023-04-21T19:47:45.096Z,100847.06
2023-04-21T19:50:16.626Z,100851.31
2023-04-21T19:52:48.507Z,100851.00
2023-04-21T19:55:23.111Z,100850.69
2023-04-21T19:57:54.615Z,100855.72
2023-04-21T20:00:26.088Z,100856.13
2023-04-21T20:02:57.659Z,100853.47
2023-04-21T20:05:29.184Z,100853.38
2023-04-21T20:08:01.034Z,100858.69
2023-04-21T20:10:32.518Z,100861.28
2023-04-21T20:13:04.326Z,100858.63
2023-04-21T20:15:35.832Z,100860.16
2023-04-21T20:18:07.597Z,100866.41
2023-04-21T20:20:39.181Z,100863.16
2023-04-21T20:23:11.266Z,100866.31
2023-04-21T20:25:42.728Z,100859.66
2023-04-21T20:28:14.391Z,100865.03
2023-04-21T20:30:45.867Z,100869.00
2023-04-21T20:33:17.662Z,100862.25
2023-04-21T20:35:49.116Z,100862.19
2023-04-21T20:38:20.906Z,100868.59
2023-04-21T20:40:52.425Z,100867.72
2023-04-21T20:43:24.229Z,100870.81
2023-04-21T20:45:55.692Z,100870.22
2023-04-21T20:48:27.215Z,100876.66
2023-04-21T20:50:58.881Z,100872.22
2023-04-21T20:53:30.375Z,100876.22
2023-04-21T20:56:02.152Z,100874.69
2023-04-21T20:58:33.620Z,100873.56
2023-04-21T21:01:05.456Z,100871.94
2023-04-21T21:03:37.370Z,100861.84
2023-04-21T21:06:09.182Z,100876.53
2023-04-21T21:08:40.652Z,100876.22
2023-04-21T21:11:12.144Z,100881.00
2023-04-21T21:13:43.599Z,100870.97
2023-04-21T21:16:15.098Z,100871.69
2023-04-21T21:18:46.577Z,100870.53
2023-04-21T21:21:18.266Z,100870.19
2023-04-21T21:23:49.737Z,100880.59
2023-04-21T21:26:21.518Z,100877.09
2023-04-21T21:28:52.980Z,100880.81
2023-04-21T21:31:24.790Z,100883.41
2023-04-21T21:33:56.314Z,100880.38
2023-04-21T21:36:28.164Z,100880.88
2023-04-21T21:38:59.617Z,100876.78
2023-04-21T21:41:31.118Z,100878.75
2023-04-21T21:44:02.595Z,100876.09
2023-04-21T21:46:34.083Z,100882.16
2023-04-21T21:49:05.571Z,100889.03
2023-04-21T21:51:37.387Z,100884.38
2023-04-21T21:54:08.865Z,100881.59
2023-04-21T21:56:40.651Z,100884.41
2023-04-21T21:59:12.129Z,100879.53
2023-04-21T22:01:43.977Z,100884.53
2023-04-21T22:04:15.633Z,100883.34
2023-04-21T22:06:47.640Z,100883.72
2023-04-21T22:09:19.126Z,100889.78
2023-04-21T22:11:50.660Z,100883.25
2023-04-21T22:14:23.696Z,100889.50
2023-04-21T22:16:55.565Z,100892.41
2023-04-21T22:19:27.056Z,100894.16
2023-04-21T22:21:58.913Z,100891.81
2023-04-21T22:24:30.402Z,100898.78
2023-04-21T22:27:02.335Z,100897.28
2023-04-21T22:29:33.806Z,100899.13
2023-04-21T22:32:05.566Z,100899.25
2023-04-21T22:34:37.049Z,100898.06
2023-04-21T22:37:08.827Z,100897.03
2023-04-21T22:39:40.565Z,100902.25
2023-04-21T22:42:12.173Z,100904.56
2023-04-21T22:44:43.668Z,100902.59
2023-04-21T22:47:15.416Z,100905.72
2023-04-21T22:49:46.902Z,100900.22
2023-04-21T22:52:18.700Z,100912.19
2023-04-21T22:54:50.185Z,100904.41
2023-04-21T22:57:22.266Z,100914.97
2023-04-21T22:59:53.737Z,100904.50
2023-04-21T23:02:25.775Z,100907.63
2023-04-21T23:04:57.384Z,100915.28
2023-04-21T23:07:29.044Z,100909.81
2023-04-21T23:10:00.843Z,100909.22
2023-04-21T23:12:32.297Z,100911.31
2023-04-21T23:15:04.105Z,100904.31
2023-04-21T23:17:35.598Z,100908.03
2023-04-21T23:20:07.490Z,100903.16
2023-04-21T23:22:38.972Z,100903.56
2023-04-21T23:25:10.801Z,100901.94
2023-04-21T23:27:42.291Z,100909.38
2023-04-21T23:30:14.299Z,100906.94
2023-04-21T23:32:45.904Z,100908.78
2023-04-21T23:35:17.751Z,100904.47
2023-04-21T23:37:49.221Z,100912.50
2023-04-21T23:40:20.900Z,100907.84
2023-04-21T23:42:52.366Z,100907.47
2023-04-21T23:45:24.149Z,100905.47
2023-04-21T23:47:55.659Z,100897.91
2023-04-21T23:50:27.620Z,100897.56
2023-04-21T23:52:59.078Z,100899.03
2023-04-21T23:55:30.809Z,100898.91
2023-04-21T23:58:02.280Z,100899.31
